sensor_id;sensor_type;location;lat;lon;timestamp;pressure;altitude;pressure_sealevel;temperature;humidity
16094;BME280;8151;47.824;12.092;2023-04-04T00:01:14;96895.91;;;3.65;59.67
16094;BME280;8151;47.824;12.092;2023-04-04T00:03:43;96901.16;;;3.65;59.97
16094;BME280;8151;47.824;12.092;2023-04-04T00:06:13;96901.88;;;3.67;59.77
16094;BME280;8151;47.824;12.092;2023-04-04T00:08:41;96896.63;;;3.67;59.65
16094;BME280;8151;47.824;12.092;2023-04-04T00:11:10;96890.69;;;3.65;59.91
16094;BME280;8151;47.824;12.092;2023-04-04T00:13:39;96887.44;;;3.62;60.00
16094;BME280;8151;47.824;12.092;2023-04-04T00:16:11;96894.47;;;3.61;59.91
16094;BME280;8151;47.824;12.092;2023-04-04T00:18:39;96891.75;;;3.63;60.03
16094;BME280;8151;47.824;12.092;2023-04-04T00:21:18;96892.56;;;3.63;60.07
16094;BME280;8151;47.824;12.092;2023-04-04T00:23:46;96892.56;;;3.63;60.17
16094;BME280;8151;47.824;12.092;2023-04-04T00:26:14;96877.09;;;3.60;60.27
16094;BME280;8151;47.824;12.092;2023-04-04T00:28:43;96891.03;;;3.61;60.32
16094;BME280;8151;47.824;12.092;2023-04-04T00:31:12;96880.66;;;3.59;59.98
16094;BME280;8151;47.824;12.092;2023-04-04T00:33:40;96875.44;;;3.59;60.22
16094;BME280;8151;47.824;12.092;2023-04-04T00:36:09;96878.38;;;3.54;60.16
16094;BME280;8151;47.824;12.092;2023-04-04T00:38:39;96877.16;;;3.47;60.29
16094;BME280;8151;47.824;12.092;2023-04-04T00:41:07;96866.81;;;3.46;60.26
16094;BME280;8151;47.824;12.092;2023-04-04T00:43:37;96859.28;;;3.41;60.32
16094;BME280;8151;47.824;12.092;2023-04-04T00:46:07;96870.06;;;3.37;60.47
16094;BME280;8151;47.824;12.092;2023-04-04T00:48:35;96857.97;;;3.35;60.34
16094;BME280;8151;47.824;12.092;2023-04-04T00:51:12;96863.19;;;3.35;60.18
16094;BME280;8151;47.824;12.092;2023-04-04T00:53:43;96856.38;;;3.33;60.34
16094;BME280;8151;47.824;12.092;2023-04-04T00:56:13;96846.28;;;3.28;60.08
16094;BME280;8151;47.824;12.092;2023-04-04T00:58:42;96847.19;;;3.27;60.43
16094;BME280;8151;47.824;12.092;2023-04-04T01:01:11;96849.94;;;3.26;60.32
16094;BME280;8151;47.824;12.092;2023-04-04T01:03:40;96852.66;;;3.24;60.44
16094;BME280;8151;47.824;12.092;2023-04-04T01:06:08;96843.13;;;3.23;60.34
16094;BME280;8151;47.824;12.092;2023-04-04T01:08:37;96846.94;;;3.19;60.36
16094;BME280;8151;47.824;12.092;2023-04-04T01:11:08;96843.59;;;3.17;60.43
16094;BME280;8151;47.824;12.092;2023-04-04T01:13:37;96845.47;;;3.15;60.62
16094;BME280;8151;47.824;12.092;2023-04-04T01:16:06;96836.19;;;3.11;60.61
16094;BME280;8151;47.824;12.092;2023-04-04T01:18:35;96837.97;;;3.10;60.73
16094;BME280;8151;47.824;12.092;2023-04-04T01:21:06;96828.78;;;3.05;60.49
16094;BME280;8151;47.824;12.092;2023-04-04T01:23:46;96827.22;;;3.02;60.54
16094;BME280;8151;47.824;12.092;2023-04-04T01:26:20;96836.84;;;3.02;60.35
16094;BME280;8151;47.824;12.092;2023-04-04T01:28:49;96834.34;;;3.00;60.57
16094;BME280;8151;47.824;12.092;2023-04-04T01:31:20;96825.88;;;2.96;60.64
16094;BME280;8151;47.824;12.092;2023-04-04T01:33:53;96828.72;;;2.93;60.71
16094;BME280;8151;47.824;12.092;2023-04-04T01:36:30;96827.16;;;2.91;60.77
16094;BME280;8151;47.824;12.092;2023-04-04T01:39:13;96823.06;;;2.87;60.72
16094;BME280;8151;47.824;12.092;2023-04-04T01:41:46;96824.97;;;2.85;60.72
16094;BME280;8151;47.824;12.092;2023-04-04T01:44:16;96822.59;;;2.82;60.87
16094;BME280;8151;47.824;12.092;2023-04-04T01:46:45;96826.13;;;2.81;60.79
16094;BME280;8151;47.824;12.092;2023-04-04T01:49:13;96821.00;;;2.79;61.09
16094;BME280;8151;47.824;12.092;2023-04-04T01:51:43;96816.63;;;2.80;60.85
16094;BME280;8151;47.824;12.092;2023-04-04T01:54:12;96818.41;;;2.79;60.85
16094;BME280;8151;47.824;12.092;2023-04-04T01:56:44;96819.34;;;2.78;60.80
16094;BME280;8151;47.824;12.092;2023-04-04T01:59:12;96821.13;;;2.78;60.95
16094;BME280;8151;47.824;12.092;2023-04-04T02:01:41;96820.41;;;2.75;61.09
16094;BME280;8151;47.824;12.092;2023-04-04T02:04:09;96826.66;;;2.73;61.31
16094;BME280;8151;47.824;12.092;2023-04-04T02:06:38;96818.34;;;2.68;61.06
16094;BME280;8151;47.824;12.092;2023-04-04T02:09:07;96827.34;;;2.64;61.35
16094;BME280;8151;47.824;12.092;2023-04-04T02:11:35;96820.44;;;2.63;61.19
16094;BME280;8151;47.824;12.092;2023-04-04T02:14:06;96817.09;;;2.61;61.05
16094;BME280;8151;47.824;12.092;2023-04-04T02:16:41;96814.47;;;2.61;61.22
16094;BME280;8151;47.824;12.092;2023-04-04T02:19:10;96818.03;;;2.60;61.49
16094;BME280;8151;47.824;12.092;2023-04-04T02:21:39;96809.34;;;2.59;61.01
16094;BME280;8151;47.824;12.092;2023-04-04T02:24:07;96807.81;;;2.56;61.61
16094;BME280;8151;47.824;12.092;2023-04-04T02:26:36;96809.69;;;2.54;61.24
16094;BME280;8151;47.824;12.092;2023-04-04T02:29:07;96806.34;;;2.52;61.54
16094;BME280;8151;47.824;12.092;2023-04-04T02:31:44;96815.56;;;2.45;61.78
16094;BME280;8151;47.824;12.092;2023-04-04T02:34:13;96813.88;;;2.44;61.59
16094;BME280;8151;47.824;12.092;2023-04-04T02:36:41;96815.97;;;2.39;61.50
16094;BME280;8151;47.824;12.092;2023-04-04T02:39:09;96814.19;;;2.40;61.69
16094;BME280;8151;47.824;12.092;2023-04-04T02:41:38;96809.81;;;2.40;61.74
16094;BME280;8151;47.824;12.092;2023-04-04T02:44:09;96804.72;;;2.39;61.77
16094;BME280;8151;47.824;12.092;2023-04-04T02:46:38;96807.19;;;2.40;61.63
16094;BME280;8151;47.824;12.092;2023-04-04T02:49:06;96808.16;;;2.39;61.70
16094;BME280;8151;47.824;12.092;2023-04-04T02:51:35;96804.72;;;2.39;61.62
16094;BME280;8151;47.824;12.092;2023-04-04T02:54:03;96804.72;;;2.39;61.82
16094;BME280;8151;47.824;12.092;2023-04-04T02:56:35;96807.63;;;2.34;61.94
16094;BME280;8151;47.824;12.092;2023-04-04T02:59:05;96807.94;;;2.29;62.02
16094;BME280;8151;47.824;12.092;2023-04-04T03:01:35;96813.06;;;2.31;61.93
16094;BME280;8151;47.824;12.092;2023-04-04T03:04:04;96812.94;;;2.32;61.69
16094;BME280;8151;47.824;12.092;2023-04-04T03:06:33;96809.31;;;2.35;61.94
16094;BME280;8151;47.824;12.092;2023-04-04T03:09:02;96814.53;;;2.35;61.88
16094;BME280;8151;47.824;12.092;2023-04-04T03:11:31;96811.38;;;2.30;62.11
16094;BME280;8151;47.824;12.092;2023-04-04T03:13:59;96814.00;;;2.30;62.17
16094;BME280;8151;47.824;12.092;2023-04-04T03:16:27;96805.25;;;2.31;62.17
16094;BME280;8151;47.824;12.092;2023-04-04T03:18:58;96809.59;;;2.30;62.08
16094;BME280;8151;47.824;12.092;2023-04-04T03:21:26;96809.31;;;2.22;62.38
16094;BME280;8151;47.824;12.092;2023-04-04T03:24:01;96811.19;;;2.20;62.32
16094;BME280;8151;47.824;12.092;2023-04-04T03:26:29;96805.38;;;2.04;62.55
16094;BME280;8151;47.824;12.092;2023-04-04T03:28:57;96815.16;;;2.00;62.55
16094;BME280;8151;47.824;12.092;2023-04-04T03:31:26;96810.56;;;1.91;62.78
16094;BME280;8151;47.824;12.092;2023-04-04T03:33:54;96812.63;;;1.86;63.04
16094;BME280;8151;47.824;12.092;2023-04-04T03:36:31;96815.25;;;1.86;63.07
16094;BME280;8151;47.824;12.092;2023-04-04T03:38:59;96809.28;;;1.84;63.04
16094;BME280;8151;47.824;12.092;2023-04-04T03:41:28;96818.81;;;1.85;62.93
16094;BME280;8151;47.824;12.092;2023-04-04T03:43:56;96823.31;;;1.83;62.69
16094;BME280;8151;47.824;12.092;2023-04-04T03:46:32;96825.25;;;1.66;63.42
16094;BME280;8151;47.824;12.092;2023-04-04T03:49:02;96821.25;;;1.61;63.30
16094;BME280;8151;47.824;12.092;2023-04-04T03:51:31;96818.66;;;1.61;63.62
16094;BME280;8151;47.824;12.092;2023-04-04T03:54:00;96824.72;;;1.61;63.03
16094;BME280;8151;47.824;12.092;2023-04-04T03:56:29;96826.59;;;1.59;63.23
16094;BME280;8151;47.824;12.092;2023-04-04T03:58:58;96830.72;;;1.49;63.49
16094;BME280;8151;47.824;12.092;2023-04-04T04:01:27;96827.81;;;1.41;63.41
16094;BME280;8151;47.824;12.092;2023-04-04T04:03:55;96826.13;;;1.40;63.33
16094;BME280;8151;47.824;12.092;2023-04-04T04:06:24;96825.28;;;1.39;63.67
16094;BME280;8151;47.824;12.092;2023-04-04T04:08:54;96826.13;;;1.40;63.24
16094;BME280;8151;47.824;12.092;2023-04-04T04:11:24;96832.59;;;1.34;63.43
16094;BME280;8151;47.824;12.092;2023-04-04T04:13:58;96833.31;;;1.36;63.24
16094;BME280;8151;47.824;12.092;2023-04-04T04:16:28;96832.97;;;1.28;63.69
16094;BME280;8151;47.824;12.092;2023-04-04T04:18:57;96833.47;;;1.20;63.65
16094;BME280;8151;47.824;12.092;2023-04-04T04:21:25;96845.00;;;1.16;64.06
16094;BME280;8151;47.824;12.092;2023-04-04T04:23:55;96837.19;;;1.16;63.73
16094;BME280;8151;47.824;12.092;2023-04-04T04:26:23;96833.50;;;1.06;63.63
16094;BME280;8151;47.824;12.092;2023-04-04T04:28:52;96844.13;;;1.03;63.85
16094;BME280;8151;47.824;12.092;2023-04-04T04:31:20;96841.34;;;1.06;64.19
16094;BME280;8151;47.824;12.092;2023-04-04T04:33:49;96843.28;;;1.02;63.71
16094;BME280;8151;47.824;12.092;2023-04-04T04:36:17;96846.59;;;0.91;63.97
16094;BME280;8151;47.824;12.092;2023-04-04T04:38:46;96844.56;;;0.82;64.32
16094;BME280;8151;47.824;12.092;2023-04-04T04:41:16;96843.47;;;0.72;64.35
16094;BME280;8151;47.824;12.092;2023-04-04T04:43:44;96846.59;;;0.77;64.42
16094;BME280;8151;47.824;12.092;2023-04-04T04:46:13;96846.81;;;0.74;64.63
16094;BME280;8151;47.824;12.092;2023-04-04T04:48:41;96850.91;;;0.64;64.78
16094;BME280;8151;47.824;12.092;2023-04-04T04:51:10;96853.06;;;0.57;64.70
16094;BME280;8151;47.824;12.092;2023-04-04T04:53:40;96852.78;;;0.47;64.94
16094;BME280;8151;47.824;12.092;2023-04-04T04:56:08;96855.47;;;0.46;64.80
16094;BME280;8151;47.824;12.092;2023-04-04T04:58:38;96854.84;;;0.56;64.88
16094;BME280;8151;47.824;12.092;2023-04-04T05:01:06;96859.66;;;0.63;64.70
16094;BME280;8151;47.824;12.092;2023-04-04T05:03:35;96856.59;;;0.70;64.12
16094;BME280;8151;47.824;12.092;2023-04-04T05:06:03;96864.66;;;0.80;64.31
16094;BME280;8151;47.824;12.092;2023-04-04T05:08:32;96866.97;;;0.85;63.71
16094;BME280;8151;47.824;12.092;2023-04-04T05:11:01;96868.91;;;0.81;64.20
16094;BME280;8151;47.824;12.092;2023-04-04T05:13:31;96867.38;;;0.64;64.32
16094;BME280;8151;47.824;12.092;2023-04-04T05:16:02;96867.38;;;0.50;64.55
16094;BME280;8151;47.824;12.092;2023-04-04T05:18:30;96870.66;;;0.39;64.58
16094;BME280;8151;47.824;12.092;2023-04-04T05:20:59;96867.31;;;0.37;65.00
16094;BME280;8151;47.824;12.092;2023-04-04T05:23:27;96866.91;;;0.43;65.20
16094;BME280;8151;47.824;12.092;2023-04-04T05:25:56;96868.03;;;0.53;64.70
16094;BME280;8151;47.824;12.092;2023-04-04T05:28:24;96871.63;;;0.65;64.54
16094;BME280;8151;47.824;12.092;2023-04-04T05:30:53;96878.63;;;0.65;64.31
16094;BME280;8151;47.824;12.092;2023-04-04T05:33:24;96874.44;;;0.62;64.42
16094;BME280;8151;47.824;12.092;2023-04-04T05:35:59;96871.53;;;0.52;64.78
16094;BME280;8151;47.824;12.092;2023-04-04T05:38:27;96874.25;;;0.65;64.58
16094;BME280;8151;47.824;12.092;2023-04-04T05:40:57;96877.38;;;0.85;64.08
16094;BME280;8151;47.824;12.092;2023-04-04T05:43:25;96878.78;;;0.90;64.04
16094;BME280;8151;47.824;12.092;2023-04-04T05:45:54;96886.13;;;0.98;64.38
16094;BME280;8151;47.824;12.092;2023-04-04T05:48:22;96881.34;;;1.05;64.39
16094;BME280;8151;47.824;12.092;2023-04-04T05:50:52;96877.41;;;1.12;64.29
16094;BME280;8151;47.824;12.092;2023-04-04T05:53:20;96882.78;;;1.23;64.01
16094;BME280;8151;47.824;12.092;2023-04-04T05:55:50;96882.94;;;1.34;64.02
16094;BME280;8151;47.824;12.092;2023-04-04T05:58:19;96886.72;;;1.43;63.46
16094;BME280;8151;47.824;12.092;2023-04-04T06:00:48;96886.34;;;1.49;63.88
16094;BME280;8151;47.824;12.092;2023-04-04T06:03:16;96892.00;;;1.56;63.83
16094;BME280;8151;47.824;12.092;2023-04-04T06:05:49;96888.97;;;1.62;63.81
16094;BME280;8151;47.824;12.092;2023-04-04T06:08:20;96883.50;;;1.67;63.72
16094;BME280;8151;47.824;12.092;2023-04-04T06:10:48;96882.03;;;1.75;63.57
16094;BME280;8151;47.824;12.092;2023-04-04T06:13:17;96891.13;;;1.83;63.41
16094;BME280;8151;47.824;12.092;2023-04-04T06:15:45;96881.34;;;1.86;63.51
16094;BME280;8151;47.824;12.092;2023-04-04T06:18:14;96880.06;;;1.92;63.44
16094;BME280;8151;47.824;12.092;2023-04-04T06:20:43;96885.72;;;1.99;63.54
16094;BME280;8151;47.824;12.092;2023-04-04T06:23:12;96884.50;;;2.04;63.39
16094;BME280;8151;47.824;12.092;2023-04-04T06:25:42;96882.38;;;2.09;63.53
16094;BME280;8151;47.824;12.092;2023-04-04T06:28:10;96884.72;;;2.14;63.32
16094;BME280;8151;47.824;12.092;2023-04-04T06:30:42;96878.97;;;2.22;63.39
16094;BME280;8151;47.824;12.092;2023-04-04T06:33:11;96879.19;;;2.31;63.47
16094;BME280;8151;47.824;12.092;2023-04-04T06:35:39;96877.69;;;2.40;63.48
16094;BME280;8151;47.824;12.092;2023-04-04T06:38:09;96876.34;;;2.47;63.34
16094;BME280;8151;47.824;12.092;2023-04-04T06:40:37;96879.59;;;2.51;63.38
16094;BME280;8151;47.824;12.092;2023-04-04T06:43:07;96881.78;;;2.57;63.74
16094;BME280;8151;47.824;12.092;2023-04-04T06:45:36;96873.41;;;2.65;63.38
16094;BME280;8151;47.824;12.092;2023-04-04T06:48:05;96879.03;;;2.71;63.28
16094;BME280;8151;47.824;12.092;2023-04-04T06:50:33;96875.06;;;2.79;63.28
16094;BME280;8151;47.824;12.092;2023-04-04T06:53:02;96869.63;;;2.82;62.82
16094;BME280;8151;47.824;12.092;2023-04-04T06:55:33;96864.06;;;2.86;62.88
16094;BME280;8151;47.824;12.092;2023-04-04T06:58:01;96870.53;;;2.93;62.85
16094;BME280;8151;47.824;12.092;2023-04-04T07:00:31;96864.53;;;3.04;62.84
16094;BME280;8151;47.824;12.092;2023-04-04T07:03:00;96866.59;;;3.12;62.25
16094;BME280;8151;47.824;12.092;2023-04-04T07:05:29;96854.88;;;3.18;62.44
16094;BME280;8151;47.824;12.092;2023-04-04T07:07:58;96863.94;;;3.25;62.22
16094;BME280;8151;47.824;12.092;2023-04-04T07:10:26;96862.47;;;3.33;62.29
16094;BME280;8151;47.824;12.092;2023-04-04T07:12:55;96865.13;;;3.45;62.14
16094;BME280;8151;47.824;12.092;2023-04-04T07:15:23;96855.53;;;3.57;61.96
16094;BME280;8151;47.824;12.092;2023-04-04T07:17:57;96854.75;;;3.67;61.41
16094;BME280;8151;47.824;12.092;2023-04-04T07:20:26;96860.50;;;3.72;61.35
16094;BME280;8151;47.824;12.092;2023-04-04T07:22:55;96851.69;;;3.73;60.95
16094;BME280;8151;47.824;12.092;2023-04-04T07:25:23;96853.97;;;3.78;60.59
16094;BME280;8151;47.824;12.092;2023-04-04T07:27:52;96852.66;;;3.84;60.47
16094;BME280;8151;47.824;12.092;2023-04-04T07:30:38;96850.53;;;3.89;60.17
16094;BME280;8151;47.824;12.092;2023-04-04T07:33:08;96851.16;;;3.92;59.97
16094;BME280;8151;47.824;12.092;2023-04-04T07:35:37;96851.97;;;3.93;59.60
16094;BME280;8151;47.824;12.092;2023-04-04T07:38:05;96849.03;;;3.98;59.53
16094;BME280;8151;47.824;12.092;2023-04-04T07:40:34;96856.03;;;3.97;59.36
16094;BME280;8151;47.824;12.092;2023-04-04T07:43:02;96854.13;;;3.99;59.09
16094;BME280;8151;47.824;12.092;2023-04-04T07:45:31;96853.56;;;4.07;58.89
16094;BME280;8151;47.824;12.092;2023-04-04T07:47:59;96857.59;;;4.11;58.81
16094;BME280;8151;47.824;12.092;2023-04-04T07:50:29;96852.38;;;4.11;58.42
16094;BME280;8151;47.824;12.092;2023-04-04T07:52:58;96839.66;;;4.18;58.47
16094;BME280;8151;47.824;12.092;2023-04-04T07:55:26;96850.88;;;4.31;58.16
16094;BME280;8151;47.824;12.092;2023-04-04T07:57:55;96855.28;;;4.42;57.70
16094;BME280;8151;47.824;12.092;2023-04-04T08:00:24;96854.22;;;4.44;57.34
16094;BME280;8151;47.824;12.092;2023-04-04T08:02:53;96852.56;;;4.54;57.46
16094;BME280;8151;47.824;12.092;2023-04-04T08:05:22;96848.25;;;4.65;57.18
16094;BME280;8151;47.824;12.092;2023-04-04T08:07:52;96851.13;;;4.73;56.92
16094;BME280;8151;47.824;12.092;2023-04-04T08:10:20;96854.94;;;4.80;56.51
16094;BME280;8151;47.824;12.092;2023-04-04T08:12:49;96848.97;;;4.78;56.53
16094;BME280;8151;47.824;12.092;2023-04-04T08:15:17;96856.63;;;4.70;56.93
16094;BME280;8151;47.824;12.092;2023-04-04T08:17:46;96852.78;;;4.63;56.62
16094;BME280;8151;47.824;12.092;2023-04-04T08:20:14;96848.75;;;4.59;56.59
16094;BME280;8151;47.824;12.092;2023-04-04T08:22:43;96848.13;;;4.55;56.93
16094;BME280;8151;47.824;12.092;2023-04-04T08:25:16;96850.06;;;4.53;56.71
16094;BME280;8151;47.824;12.092;2023-04-04T08:27:46;96850.75;;;4.55;56.46
16094;BME280;8151;47.824;12.092;2023-04-04T08:30:14;96860.44;;;4.66;55.80
16094;BME280;8151;47.824;12.092;2023-04-04T08:32:43;96853.28;;;4.79;55.43
16094;BME280;8151;47.824;12.092;2023-04-04T08:35:12;96859.69;;;4.98;54.90
16094;BME280;8151;47.824;12.092;2023-04-04T08:37:43;96853.47;;;5.10;54.16
16094;BME280;8151;47.824;12.092;2023-04-04T08:40:12;96854.03;;;5.13;54.74
16094;BME280;8151;47.824;12.092;2023-04-04T08:42:43;96851.69;;;5.10;54.27
16094;BME280;8151;47.824;12.092;2023-04-04T08:45:16;96855.41;;;5.08;54.30
16094;BME280;8151;47.824;12.092;2023-04-04T08:47:47;96856.22;;;5.08;54.52
16094;BME280;8151;47.824;12.092;2023-04-04T08:50:18;96853.22;;;5.13;54.35
16094;BME280;8151;47.824;12.092;2023-04-04T08:52:48;96849.19;;;5.09;53.85
16094;BME280;8151;47.824;12.092;2023-04-04T08:55:16;96840.69;;;5.17;53.99
16094;BME280;8151;47.824;12.092;2023-04-04T08:57:47;96848.44;;;5.18;53.41
16094;BME280;8151;47.824;12.092;2023-04-04T09:00:16;96852.63;;;5.09;53.71
16094;BME280;8151;47.824;12.092;2023-04-04T09:02:53;96855.75;;;5.03;53.72
16094;BME280;8151;47.824;12.092;2023-04-04T09:05:24;96855.84;;;5.02;54.13
16094;BME280;8151;47.824;12.092;2023-04-04T09:07:54;96853.63;;;4.97;53.73
16094;BME280;8151;47.824;12.092;2023-04-04T09:10:23;96854.56;;;4.96;53.71
16094;BME280;8151;47.824;12.092;2023-04-04T09:12:54;96844.78;;;4.98;53.27
16094;BME280;8151;47.824;12.092;2023-04-04T09:15:45;96843.44;;;5.04;53.67
16094;BME280;8151;47.824;12.092;2023-04-04T09:18:15;96844.31;;;5.04;53.13
16094;BME280;8151;47.824;12.092;2023-04-04T09:20:45;96846.78;;;5.06;53.29
16094;BME280;8151;47.824;12.092;2023-04-04T09:23:15;96839.66;;;5.08;53.21
16094;BME280;8151;47.824;12.092;2023-04-04T09:25:45;96847.75;;;5.05;53.03
16094;BME280;8151;47.824;12.092;2023-04-04T09:28:33;96860.66;;;5.08;53.27
16094;BME280;8151;47.824;12.092;2023-04-04T09:31:05;96850.72;;;5.11;53.33
16094;BME280;8151;47.824;12.092;2023-04-04T09:33:37;96864.63;;;5.23;52.54
16094;BME280;8151;47.824;12.092;2023-04-04T09:36:09;96862.47;;;5.40;51.98
16094;BME280;8151;47.824;12.092;2023-04-04T09:38:40;96860.06;;;5.48;52.13
16094;BME280;8151;47.824;12.092;2023-04-04T09:41:15;96861.44;;;5.63;51.79
16094;BME280;8151;47.824;12.092;2023-04-04T09:43:45;96856.25;;;5.73;51.51
16094;BME280;8151;47.824;12.092;2023-04-04T09:46:17;96857.03;;;5.85;51.90
16094;BME280;8151;47.824;12.092;2023-04-04T09:48:48;96847.69;;;5.92;51.41
16094;BME280;8151;47.824;12.092;2023-04-04T09:51:16;96858.19;;;6.03;51.48
16094;BME280;8151;47.824;12.092;2023-04-04T09:53:47;96854.78;;;6.13;51.52
16094;BME280;8151;47.824;12.092;2023-04-04T09:56:15;96855.56;;;6.24;51.46
16094;BME280;8151;47.824;12.092;2023-04-04T09:58:46;96849.38;;;6.35;51.44
16094;BME280;8151;47.824;12.092;2023-04-04T10:01:29;96859.81;;;6.46;50.93
16094;BME280;8151;47.824;12.092;2023-04-04T10:03:58;96843.16;;;6.57;50.86
16094;BME280;8151;47.824;12.092;2023-04-04T10:06:27;96856.06;;;6.70;50.81
16094;BME280;8151;47.824;12.092;2023-04-04T10:08:57;96853.59;;;6.78;50.90
16094;BME280;8151;47.824;12.092;2023-04-04T10:11:29;96852.09;;;6.85;50.43
16094;BME280;8151;47.824;12.092;2023-04-04T10:14:00;96846.31;;;6.92;50.54
16094;BME280;8151;47.824;12.092;2023-04-04T10:16:33;96838.56;;;7.00;50.38
16094;BME280;8151;47.824;12.092;2023-04-04T10:19:04;96836.25;;;7.06;50.58
16094;BME280;8151;47.824;12.092;2023-04-04T10:21:34;96840.56;;;7.17;50.60
16094;BME280;8151;47.824;12.092;2023-04-04T10:24:03;96837.66;;;7.20;50.43
16094;BME280;8151;47.824;12.092;2023-04-04T10:26:36;96837.66;;;7.10;50.48
16094;BME280;8151;47.824;12.092;2023-04-04T10:29:06;96842.63;;;7.04;50.14
16094;BME280;8151;47.824;12.092;2023-04-04T10:31:37;96838.47;;;7.11;50.08
16094;BME280;8151;47.824;12.092;2023-04-04T10:34:09;96844.31;;;7.24;49.80
16094;BME280;8151;47.824;12.092;2023-04-04T10:36:48;96843.50;;;7.34;49.06
16094;BME280;8151;47.824;12.092;2023-04-04T10:39:21;96842.97;;;7.40;49.01
16094;BME280;8151;47.824;12.092;2023-04-04T10:41:52;96843.78;;;7.40;49.04
16094;BME280;8151;47.824;12.092;2023-04-04T10:44:28;96836.44;;;7.34;48.69
16094;BME280;8151;47.824;12.092;2023-04-04T10:47:03;96842.50;;;7.25;48.85
16094;BME280;8151;47.824;12.092;2023-04-04T10:49:35;96841.13;;;7.21;49.07
16094;BME280;8151;47.824;12.092;2023-04-04T10:52:05;96844.63;;;7.31;48.95
16094;BME280;8151;47.824;12.092;2023-04-04T10:54:34;96842.00;;;7.41;48.76
16094;BME280;8151;47.824;12.092;2023-04-04T10:57:03;96835.19;;;7.48;48.39
16094;BME280;8151;47.824;12.092;2023-04-04T10:59:33;96838.13;;;7.55;48.56
16094;BME280;8151;47.824;12.092;2023-04-04T11:02:02;96840.47;;;7.67;48.24
16094;BME280;8151;47.824;12.092;2023-04-04T11:04:33;96831.75;;;7.77;48.36
16094;BME280;8151;47.824;12.092;2023-04-04T11:07:08;96828.56;;;7.73;48.02
16094;BME280;8151;47.824;12.092;2023-04-04T11:09:51;96838.84;;;7.66;47.81
16094;BME280;8151;47.824;12.092;2023-04-04T11:12:21;96839.41;;;7.60;48.05
16094;BME280;8151;47.824;12.092;2023-04-04T11:15:07;96832.44;;;7.40;47.04
16094;BME280;8151;47.824;12.092;2023-04-04T11:20:48;96826.34;;;7.68;47.61
16094;BME280;8151;47.824;12.092;2023-04-04T11:23:17;96817.50;;;7.79;47.44
16094;BME280;8151;47.824;12.092;2023-04-04T11:25:51;96819.94;;;8.00;47.15
16094;BME280;8151;47.824;12.092;2023-04-04T11:28:43;96814.50;;;8.21;46.59
16094;BME280;8151;47.824;12.092;2023-04-04T11:31:28;96810.03;;;8.32;46.56
16094;BME280;8151;47.824;12.092;2023-04-04T11:34:01;96819.63;;;8.33;46.83
16094;BME280;8151;47.824;12.092;2023-04-04T11:36:52;96811.84;;;8.31;45.96
16094;BME280;8151;47.824;12.092;2023-04-04T11:39:24;96819.06;;;8.29;46.70
16094;BME280;8151;47.824;12.092;2023-04-04T11:41:54;96816.31;;;8.21;46.62
16094;BME280;8151;47.824;12.092;2023-04-04T11:44:25;96812.38;;;8.35;46.52
16094;BME280;8151;47.824;12.092;2023-04-04T11:47:00;96808.91;;;8.54;45.91
16094;BME280;8151;47.824;12.092;2023-04-04T11:49:33;96804.50;;;8.72;45.67
16094;BME280;8151;47.824;12.092;2023-04-04T11:52:06;96810.19;;;8.77;45.08
16094;BME280;8151;47.824;12.092;2023-04-04T11:54:36;96812.38;;;8.82;45.75
16094;BME280;8151;47.824;12.092;2023-04-04T11:57:06;96806.81;;;8.85;45.17
16094;BME280;8151;47.824;12.092;2023-04-04T11:59:38;96806.00;;;8.84;45.06
16094;BME280;8151;47.824;12.092;2023-04-04T12:02:09;96806.47;;;8.70;45.48
16094;BME280;8151;47.824;12.092;2023-04-04T12:04:40;96800.72;;;8.47;45.68
16094;BME280;8151;47.824;12.092;2023-04-04T12:07:12;96800.47;;;8.31;45.49
16094;BME280;8151;47.824;12.092;2023-04-04T12:09:42;96795.66;;;8.16;46.01
16094;BME280;8151;47.824;12.092;2023-04-04T12:12:14;96791.41;;;7.86;45.90
16094;BME280;8151;47.824;12.092;2023-04-04T12:14:43;96795.03;;;7.65;46.31
16094;BME280;8151;47.824;12.092;2023-04-04T12:17:15;96792.13;;;7.68;45.80
16094;BME280;8151;47.824;12.092;2023-04-04T12:19:44;96792.53;;;7.74;45.87
16094;BME280;8151;47.824;12.092;2023-04-04T12:22:13;96798.19;;;7.79;45.54
16094;BME280;8151;47.824;12.092;2023-04-04T12:24:42;96797.50;;;7.86;45.29
16094;BME280;8151;47.824;12.092;2023-04-04T12:27:11;96791.66;;;8.02;45.14
16094;BME280;8151;47.824;12.092;2023-04-04T12:29:40;96791.91;;;8.19;44.62
16094;BME280;8151;47.824;12.092;2023-04-04T12:32:14;96784.06;;;8.37;44.87
16094;BME280;8151;47.824;12.092;2023-04-04T12:34:43;96790.13;;;8.57;44.72
16094;BME280;8151;47.824;12.092;2023-04-04T12:37:20;96787.94;;;8.80;43.95
16094;BME280;8151;47.824;12.092;2023-04-04T12:39:49;96781.50;;;8.92;44.06
16094;BME280;8151;47.824;12.092;2023-04-04T12:42:21;96784.22;;;8.82;44.15
16094;BME280;8151;47.824;12.092;2023-04-04T12:44:52;96785.06;;;8.73;44.26
16094;BME280;8151;47.824;12.092;2023-04-04T12:47:22;96783.88;;;8.85;44.37
16094;BME280;8151;47.824;12.092;2023-04-04T12:49:53;96783.78;;;9.05;44.06
16094;BME280;8151;47.824;12.092;2023-04-04T12:52:26;96778.75;;;9.12;43.67
16094;BME280;8151;47.824;12.092;2023-04-04T12:54:57;96776.47;;;9.17;43.62
16094;BME280;8151;47.824;12.092;2023-04-04T12:57:43;96772.66;;;9.11;43.78
16094;BME280;8151;47.824;12.092;2023-04-04T13:00:13;96775.91;;;8.95;43.91
16094;BME280;8151;47.824;12.092;2023-04-04T13:02:45;96775.78;;;8.97;43.92
16094;BME280;8151;47.824;12.092;2023-04-04T13:05:15;96778.28;;;9.16;43.83
16094;BME280;8151;47.824;12.092;2023-04-04T13:07:46;96770.84;;;9.30;43.52
16094;BME280;8151;47.824;12.092;2023-04-04T13:10:15;96773.03;;;9.34;43.23
16094;BME280;8151;47.824;12.092;2023-04-04T13:12:54;96770.22;;;9.36;42.78
16094;BME280;8151;47.824;12.092;2023-04-04T13:15:46;96769.81;;;9.40;43.04
16094;BME280;8151;47.824;12.092;2023-04-04T13:18:17;96759.91;;;9.42;43.63
16094;BME280;8151;47.824;12.092;2023-04-04T13:20:47;96757.72;;;9.56;43.44
16094;BME280;8151;47.824;12.092;2023-04-04T13:23:16;96749.63;;;9.75;42.80
16094;BME280;8151;47.824;12.092;2023-04-04T13:25:45;96763.41;;;9.87;42.80
16094;BME280;8151;47.824;12.092;2023-04-04T13:28:14;96754.06;;;9.93;42.39
16094;BME280;8151;47.824;12.092;2023-04-04T13:30:43;96751.84;;;9.88;42.45